sensor_id;sensor_type;location;lat;lon;timestamp;P1;durP1;ratioP1;P2;durP2;ratioP2
29218;SDS011;16421;50.202;7.852;2023-08-06T07:56:50;0.93;;;0.10;;
29218;SDS011;16421;50.202;7.852;2023-08-06T08:01:53;0.88;;;0.20;;
29218;SDS011;16421;50.202;7.852;2023-08-06T08:06:56;0.20;;;0.20;;
29218;SDS011;16421;50.202;7.852;2023-08-06T08:12:01;0.50;;;0.40;;
29218;SDS011;16421;50.202;7.852;2023-08-06T08:17:05;0.27;;;0.20;;
29218;SDS011;16421;50.202;7.852;2023-08-06T08:22:09;0.40;;;0.20;;
29218;SDS011;16421;50.202;7.852;2023-08-06T08:27:13;1.45;;;0.40;;
29218;SDS011;16421;50.202;7.852;2023-08-06T08:32:17;0.70;;;0.30;;
29218;SDS011;16421;50.202;7.852;2023-08-06T08:37:21;0.57;;;0.32;;
29218;SDS011;16421;50.202;7.852;2023-08-06T08:42:26;0.15;;;0.15;;
29218;SDS011;16421;50.202;7.852;2023-08-06T08:47:30;0.13;;;0.13;;
29218;SDS011;16421;50.202;7.852;2023-08-06T08:52:34;0.63;;;0.20;;
29218;SDS011;16421;50.202;7.852;2023-08-06T08:57:41;1.17;;;0.40;;
29218;SDS011;16421;50.202;7.852;2023-08-06T09:02:45;0.63;;;0.20;;
29218;SDS011;16421;50.202;7.852;2023-08-06T09:07:49;0.17;;;0.10;;
29218;SDS011;16421;50.202;7.852;2023-08-06T09:12:58;0.13;;;0.10;;
29218;SDS011;16421;50.202;7.852;2023-08-06T09:18:09;0.10;;;0.10;;
29218;SDS011;16421;50.202;7.852;2023-08-06T09:23:13;0.10;;;0.10;;
29218;SDS011;16421;50.202;7.852;2023-08-06T09:28:19;0.10;;;0.00;;
29218;SDS011;16421;50.202;7.852;2023-08-06T09:33:22;0.17;;;0.10;;
29218;SDS011;16421;50.202;7.852;2023-08-06T09:38:25;0.05;;;0.05;;
29218;SDS011;16421;50.202;7.852;2023-08-06T09:43:41;0.20;;;0.10;;
29218;SDS011;16421;50.202;7.852;2023-08-06T09:48:45;0.70;;;0.17;;
29218;SDS011;16421;50.202;7.852;2023-08-06T09:53:51;0.73;;;0.20;;
29218;SDS011;16421;50.202;7.852;2023-08-06T10:09:56;0.32;;;0.10;;
29218;SDS011;16421;50.202;7.852;2023-08-06T10:15:01;0.00;;;0.00;;
29218;SDS011;16421;50.202;7.852;2023-08-06T10:20:09;0.10;;;0.00;;
29218;SDS011;16421;50.202;7.852;2023-08-06T10:30:23;0.50;;;0.20;;
29218;SDS011;16421;50.202;7.852;2023-08-06T10:35:29;1.45;;;0.20;;
29218;SDS011;16421;50.202;7.852;2023-08-06T10:47:30;0.10;;;0.10;;
29218;SDS011;16421;50.202;7.852;2023-08-06T10:52:44;0.10;;;0.00;;
29218;SDS011;16421;50.202;7.852;2023-08-06T10:57:48;0.30;;;0.10;;
29218;SDS011;16421;50.202;7.852;2023-08-06T11:02:52;0.00;;;0.00;;
29218;SDS011;16421;50.202;7.852;2023-08-06T11:07:58;0.38;;;0.20;;
29218;SDS011;16421;50.202;7.852;2023-08-06T11:13:02;0.20;;;0.20;;
29218;SDS011;16421;50.202;7.852;2023-08-06T11:18:06;0.10;;;0.10;;
29218;SDS011;16421;50.202;7.852;2023-08-06T11:23:11;0.90;;;0.20;;
29218;SDS011;16421;50.202;7.852;2023-08-06T11:33:26;0.10;;;0.10;;
29218;SDS011;16421;50.202;7.852;2023-08-06T11:38:32;0.20;;;0.20;;
29218;SDS011;16421;50.202;7.852;2023-08-06T11:43:35;0.10;;;0.10;;
29218;SDS011;16421;50.202;7.852;2023-08-06T11:48:50;0.57;;;0.10;;
29218;SDS011;16421;50.202;7.852;2023-08-06T11:53:56;0.57;;;0.20;;
29218;SDS011;16421;50.202;7.852;2023-08-06T11:59:00;0.30;;;0.20;;
29218;SDS011;16421;50.202;7.852;2023-08-06T12:04:04;0.30;;;0.30;;
29218;SDS011;16421;50.202;7.852;2023-08-06T12:09:09;0.98;;;0.50;;
29218;SDS011;16421;50.202;7.852;2023-08-06T12:14:13;0.43;;;0.40;;
29218;SDS011;16421;50.202;7.852;2023-08-06T12:19:16;0.40;;;0.40;;
29218;SDS011;16421;50.202;7.852;2023-08-06T12:24:24;0.60;;;0.38;;
29218;SDS011;16421;50.202;7.852;2023-08-06T12:29:34;2.13;;;0.47;;
29218;SDS011;16421;50.202;7.852;2023-08-06T12:34:38;0.32;;;0.30;;
29218;SDS011;16421;50.202;7.852;2023-08-06T12:39:49;0.50;;;0.20;;
29218;SDS011;16421;50.202;7.852;2023-08-06T12:44:53;0.20;;;0.20;;
29218;SDS011;16421;50.202;7.852;2023-08-06T12:49:57;0.52;;;0.20;;
29218;SDS011;16421;50.202;7.852;2023-08-06T12:55:02;1.08;;;0.30;;
29218;SDS011;16421;50.202;7.852;2023-08-06T13:00:06;1.03;;;0.33;;
29218;SDS011;16421;50.202;7.852;2023-08-06T13:05:10;0.70;;;0.40;;
29218;SDS011;16421;50.202;7.852;2023-08-06T13:10:15;0.30;;;0.30;;
29218;SDS011;16421;50.202;7.852;2023-08-06T13:15:19;2.08;;;0.32;;
29218;SDS011;16421;50.202;7.852;2023-08-06T13:20:23;0.77;;;0.50;;
29218;SDS011;16421;50.202;7.852;2023-08-06T13:25:28;1.23;;;0.40;;
29218;SDS011;16421;50.202;7.852;2023-08-06T13:30:35;0.73;;;0.40;;
29218;SDS011;16421;50.202;7.852;2023-08-06T13:35:46;1.00;;;0.43;;
29218;SDS011;16421;50.202;7.852;2023-08-06T13:40:54;1.08;;;0.40;;
29218;SDS011;16421;50.202;7.852;2023-08-06T13:45:58;1.17;;;0.35;;
29218;SDS011;16421;50.202;7.852;2023-08-06T13:51:02;0.25;;;0.25;;
29218;SDS011;16421;50.202;7.852;2023-08-06T13:56:07;0.20;;;0.20;;
29218;SDS011;16421;50.202;7.852;2023-08-06T14:01:11;0.55;;;0.28;;
29218;SDS011;16421;50.202;7.852;2023-08-06T14:06:15;0.30;;;0.20;;
29218;SDS011;16421;50.202;7.852;2023-08-06T14:11:20;0.20;;;0.20;;
29218;SDS011;16421;50.202;7.852;2023-08-06T14:16:23;0.70;;;0.20;;
29218;SDS011;16421;50.202;7.852;2023-08-06T14:21:26;0.55;;;0.20;;
29218;SDS011;16421;50.202;7.852;2023-08-06T14:26:31;0.98;;;0.20;;
29218;SDS011;16421;50.202;7.852;2023-08-06T14:31:34;0.75;;;0.40;;
29218;SDS011;16421;50.202;7.852;2023-08-06T14:36:38;0.52;;;0.10;;
29218;SDS011;16421;50.202;7.852;2023-08-06T14:41:42;1.00;;;0.15;;
29218;SDS011;16421;50.202;7.852;2023-08-06T14:46:46;0.20;;;0.15;;
29218;SDS011;16421;50.202;7.852;2023-08-06T14:51:49;0.28;;;0.20;;
29218;SDS011;16421;50.202;7.852;2023-08-06T14:56:54;0.28;;;0.17;;
29218;SDS011;16421;50.202;7.852;2023-08-06T15:01:58;0.45;;;0.20;;
29218;SDS011;16421;50.202;7.852;2023-08-06T15:07:01;0.63;;;0.10;;
29218;SDS011;16421;50.202;7.852;2023-08-06T15:12:08;0.10;;;0.10;;
29218;SDS011;16421;50.202;7.852;2023-08-06T15:17:12;0.20;;;0.10;;
29218;SDS011;16421;50.202;7.852;2023-08-06T15:22:17;0.20;;;0.20;;
29218;SDS011;16421;50.202;7.852;2023-08-06T15:27:22;0.30;;;0.30;;
29218;SDS011;16421;50.202;7.852;2023-08-06T15:32:25;0.80;;;0.20;;
29218;SDS011;16421;50.202;7.852;2023-08-06T15:37:29;0.32;;;0.32;;
29218;SDS011;16421;50.202;7.852;2023-08-06T15:42:35;0.85;;;0.25;;
29218;SDS011;16421;50.202;7.852;2023-08-06T15:47:39;3.10;;;0.30;;
29218;SDS011;16421;50.202;7.852;2023-08-06T15:52:45;0.17;;;0.13;;
29218;SDS011;16421;50.202;7.852;2023-08-06T15:57:50;0.10;;;0.10;;
29218;SDS011;16421;50.202;7.852;2023-08-06T16:02:53;0.20;;;0.10;;
29218;SDS011;16421;50.202;7.852;2023-08-06T16:07:57;0.20;;;0.20;;
29218;SDS011;16421;50.202;7.852;2023-08-06T16:13:01;0.15;;;0.15;;
29218;SDS011;16421;50.202;7.852;2023-08-06T16:18:05;0.20;;;0.20;;
29218;SDS011;16421;50.202;7.852;2023-08-06T16:23:08;0.43;;;0.43;;
29218;SDS011;16421;50.202;7.852;2023-08-06T16:28:13;0.70;;;0.20;;
29218;SDS011;16421;50.202;7.852;2023-08-06T16:33:17;1.48;;;0.30;;
29218;SDS011;16421;50.202;7.852;2023-08-06T16:38:20;0.20;;;0.20;;
29218;SDS011;16421;50.202;7.852;2023-08-06T16:43:25;0.63;;;0.40;;
29218;SDS011;16421;50.202;7.852;2023-08-06T16:48:28;1.05;;;0.20;;
29218;SDS011;16421;50.202;7.852;2023-08-06T16:53:32;1.08;;;0.20;;
29218;SDS011;16421;50.202;7.852;2023-08-06T16:58:37;1.85;;;0.20;;
29218;SDS011;16421;50.202;7.852;2023-08-06T17:03:40;1.17;;;0.52;;
29218;SDS011;16421;50.202;7.852;2023-08-06T17:08:43;0.40;;;0.20;;
29218;SDS011;16421;50.202;7.852;2023-08-06T17:13:48;0.43;;;0.20;;
29218;SDS011;16421;50.202;7.852;2023-08-06T17:18:52;0.40;;;0.20;;
29218;SDS011;16421;50.202;7.852;2023-08-06T17:23:55;0.77;;;0.20;;
29218;SDS011;16421;50.202;7.852;2023-08-06T17:29:00;0.82;;;0.30;;
29218;SDS011;16421;50.202;7.852;2023-08-06T17:34:03;0.15;;;0.10;;
29218;SDS011;16421;50.202;7.852;2023-08-06T17:39:06;0.38;;;0.35;;
29218;SDS011;16421;50.202;7.852;2023-08-06T17:44:11;0.28;;;0.22;;
29218;SDS011;16421;50.202;7.852;2023-08-06T17:49:15;0.57;;;0.20;;
29218;SDS011;16421;50.202;7.852;2023-08-06T17:54:19;0.10;;;0.10;;
29218;SDS011;16421;50.202;7.852;2023-08-06T17:59:25;0.95;;;0.30;;
29218;SDS011;16421;50.202;7.852;2023-08-06T18:04:28;0.28;;;0.10;;
29218;SDS011;16421;50.202;7.852;2023-08-06T18:09:36;0.65;;;0.30;;
29218;SDS011;16421;50.202;7.852;2023-08-06T18:14:43;1.33;;;0.40;;
29218;SDS011;16421;50.202;7.852;2023-08-06T18:19:47;2.92;;;0.25;;
29218;SDS011;16421;50.202;7.852;2023-08-06T18:24:50;0.20;;;0.17;;
29218;SDS011;16421;50.202;7.852;2023-08-06T18:29:55;0.20;;;0.20;;
29218;SDS011;16421;50.202;7.852;2023-08-06T18:34:59;0.23;;;0.20;;
29218;SDS011;16421;50.202;7.852;2023-08-06T18:40:04;0.20;;;0.10;;
29218;SDS011;16421;50.202;7.852;2023-08-06T18:45:10;0.10;;;0.10;;
29218;SDS011;16421;50.202;7.852;2023-08-06T18:50:13;0.45;;;0.20;;
29218;SDS011;16421;50.202;7.852;2023-08-06T18:55:17;0.60;;;0.20;;
29218;SDS011;16421;50.202;7.852;2023-08-06T19:00:22;0.45;;;0.20;;
29218;SDS011;16421;50.202;7.852;2023-08-06T19:05:25;0.20;;;0.20;;
29218;SDS011;16421;50.202;7.852;2023-08-06T19:10:28;0.40;;;0.20;;
29218;SDS011;16421;50.202;7.852;2023-08-06T19:15:33;0.22;;;0.20;;
29218;SDS011;16421;50.202;7.852;2023-08-06T19:20:40;0.10;;;0.10;;
29218;SDS011;16421;50.202;7.852;2023-08-06T19:25:44;0.35;;;0.10;;
29218;SDS011;16421;50.202;7.852;2023-08-06T19:30:51;0.90;;;0.20;;
29218;SDS011;16421;50.202;7.852;2023-08-06T19:35:54;0.10;;;0.10;;
29218;SDS011;16421;50.202;7.852;2023-08-06T19:41:02;0.13;;;0.10;;
29218;SDS011;16421;50.202;7.852;2023-08-06T19:46:07;0.17;;;0.10;;
29218;SDS011;16421;50.202;7.852;2023-08-06T19:51:11;0.30;;;0.20;;
29218;SDS011;16421;50.202;7.852;2023-08-06T19:56:18;0.43;;;0.28;;
29218;SDS011;16421;50.202;7.852;2023-08-06T20:01:23;0.20;;;0.20;;
29218;SDS011;16421;50.202;7.852;2023-08-06T20:06:29;0.10;;;0.10;;
29218;SDS011;16421;50.202;7.852;2023-08-06T20:11:32;0.10;;;0.10;;
29218;SDS011;16421;50.202;7.852;2023-08-06T20:16:37;0.10;;;0.10;;
29218;SDS011;16421;50.202;7.852;2023-08-06T20:21:40;0.75;;;0.20;;
29218;SDS011;16421;50.202;7.852;2023-08-06T20:26:45;0.10;;;0.10;;
29218;SDS011;16421;50.202;7.852;2023-08-06T20:31:50;0.10;;;0.10;;
29218;SDS011;16421;50.202;7.852;2023-08-06T20:36:53;1.20;;;0.50;;
29218;SDS011;16421;50.202;7.852;2023-08-06T20:41:57;0.85;;;0.30;;
29218;SDS011;16421;50.202;7.852;2023-08-06T20:47:02;0.32;;;0.10;;
29218;SDS011;16421;50.202;7.852;2023-08-06T20:52:07;1.60;;;0.40;;
29218;SDS011;16421;50.202;7.852;2023-08-06T20:57:10;2.33;;;0.65;;
29218;SDS011;16421;50.202;7.852;2023-08-06T21:02:15;1.35;;;0.50;;
29218;SDS011;16421;50.202;7.852;2023-08-06T21:07:20;0.70;;;0.30;;
29218;SDS011;16421;50.202;7.852;2023-08-06T21:12:23;1.70;;;0.55;;
29218;SDS011;16421;50.202;7.852;2023-08-06T21:17:28;0.55;;;0.38;;
29218;SDS011;16421;50.202;7.852;2023-08-06T21:22:31;0.30;;;0.30;;
29218;SDS011;16421;50.202;7.852;2023-08-06T21:27:35;1.05;;;0.50;;
29218;SDS011;16421;50.202;7.852;2023-08-06T21:32:39;1.67;;;0.38;;
29218;SDS011;16421;50.202;7.852;2023-08-06T21:37:43;0.70;;;0.30;;
29218;SDS011;16421;50.202;7.852;2023-08-06T21:42:46;0.40;;;0.40;;
29218;SDS011;16421;50.202;7.852;2023-08-06T21:47:51;2.08;;;0.77;;
29218;SDS011;16421;50.202;7.852;2023-08-06T21:52:55;1.27;;;0.32;;
29218;SDS011;16421;50.202;7.852;2023-08-06T21:57:58;2.05;;;0.35;;
29218;SDS011;16421;50.202;7.852;2023-08-06T22:03:03;0.98;;;0.30;;
29218;SDS011;16421;50.202;7.852;2023-08-06T22:08:06;0.80;;;0.30;;
29218;SDS011;16421;50.202;7.852;2023-08-06T22:13:10;2.20;;;0.57;;
29218;SDS011;16421;50.202;7.852;2023-08-06T22:18:15;0.20;;;0.20;;
29218;SDS011;16421;50.202;7.852;2023-08-06T22:23:18;1.88;;;0.40;;
29218;SDS011;16421;50.202;7.852;2023-08-06T22:28:22;1.25;;;0.45;;
29218;SDS011;16421;50.202;7.852;2023-08-06T22:33:27;2.90;;;0.60;;
29218;SDS011;16421;50.202;7.852;2023-08-06T22:38:31;2.57;;;0.80;;
29218;SDS011;16421;50.202;7.852;2023-08-06T22:43:34;1.77;;;0.70;;
29218;SDS011;16421;50.202;7.852;2023-08-06T22:48:39;3.67;;;1.00;;
29218;SDS011;16421;50.202;7.852;2023-08-06T22:53:43;2.10;;;0.55;;
29218;SDS011;16421;50.202;7.852;2023-08-06T22:58:46;1.95;;;1.08;;
29218;SDS011;16421;50.202;7.852;2023-08-06T23:03:52;1.95;;;0.60;;
29218;SDS011;16421;50.202;7.852;2023-08-06T23:08:55;6.22;;;0.60;;
29218;SDS011;16421;50.202;7.852;2023-08-06T23:13:59;1.38;;;0.63;;
29218;SDS011;16421;50.202;7.852;2023-08-06T23:19:03;1.33;;;0.50;;
29218;SDS011;16421;50.202;7.852;2023-08-06T23:24:07;1.90;;;0.60;;
29218;SDS011;16421;50.202;7.852;2023-08-06T23:29:10;3.42;;;0.60;;
29218;SDS011;16421;50.202;7.852;2023-08-06T23:34:15;1.48;;;0.80;;
29218;SDS011;16421;50.202;7.852;2023-08-06T23:39:18;0.98;;;0.63;;
29218;SDS011;16421;50.202;7.852;2023-08-06T23:44:21;2.38;;;0.50;;
29218;SDS011;16421;50.202;7.852;2023-08-06T23:49:26;1.88;;;0.60;;
29218;SDS011;16421;50.202;7.852;2023-08-06T23:54:29;1.10;;;0.50;;
29218;SDS011;16421;50.202;7.852;2023-08-06T23:59:33;1.45;;;0.50;;
